Latest Weather Observations for Carnarvon

IDW60801

Issued at 7:35 pm WST Thursday 27 November 2014 (issued every 30 minutes, with the page automatically refreshed every 10 minutes)

About weather observations | Map of weather stations | Latest weather observations for WA | Other Formats
Station Details ID: 006011 Name: CARNARVON AIRPORT Lat: -24.89 Lon: 113.67 Height: 4.0 m
Data from the previous 72 hours. | See also: Recent months at Carnarvon
Date/Time
WST
Temp
°C
App
Temp
°C
Dew
Point
Rel
Hum
%
Delta-T
°C
Wind Press
QNH
hPa
Press
MSL
hPa
Rain
since 9 am
mm
Dir
 
Spd
km/h
Gust
km/h
Spd
kts
Gust
kts
27/07:30pm 22.8 22.0 18.0 74 3.0 W 19 24 10 13 1011.0 - 0.0
27/07:00pm 22.9 21.7 17.6 72 3.3 W 20 28 11 15 1010.6 - 0.0
27/06:30pm 23.5 22.9 17.5 69 3.7 WSW 17 24 9 13 1010.5 - 0.0
27/06:00pm 23.9 22.0 16.7 64 4.4 WSW 22 28 12 15 1010.2 1010.2 0.0
27/05:30pm 24.7 22.5 16.8 61 4.9 W 24 32 13 17 1010.0 - 0.0
27/05:00pm 24.7 22.8 16.6 60 5.0 WSW 22 30 12 16 1009.7 - 0.0
27/04:30pm 25.4 21.9 15.5 54 6.0 WSW 28 37 15 20 1009.7 - 0.0
27/04:00pm 25.5 22.8 15.6 54 6.0 WSW 24 35 13 19 1009.7 - 0.0
27/03:30pm 25.7 23.4 17.7 61 5.0 W 26 35 14 19 1009.8 - 0.0
27/03:00pm 26.0 23.2 17.4 59 5.4 W 28 35 15 19 1009.8 1009.8 0.0
27/02:30pm 26.1 23.3 17.3 58 5.5 W 28 39 15 21 1009.9 - 0.0
27/02:00pm 26.1 22.7 15.8 53 6.3 W 28 37 15 20 1009.9 - 0.0
27/01:30pm 27.0 23.7 14.9 47 7.3 W 26 35 14 19 1010.0 - 0.0
27/01:00pm 26.0 22.3 17.4 59 5.4 WNW 33 41 18 22 1010.1 - 0.0
27/12:30pm 26.5 22.5 16.3 53 6.3 W 32 39 17 21 1010.2 - 0.0
27/12:00pm 25.9 22.5 16.7 57 5.7 W 30 41 16 22 1010.4 1010.4 0.0
27/11:30am 27.1 23.3 14.8 47 7.4 W 28 39 15 21 1010.4 - 0.0
27/11:00am 26.2 22.1 13.9 46 7.3 W 28 35 15 19 1010.6 - 0.0
27/10:30am 26.8 23.1 12.7 41 8.2 WNW 24 32 13 17 1010.7 - 0.0
27/10:00am 26.6 22.2 12.9 42 8.0 WNW 28 35 15 19 1010.9 - 0.0
27/09:30am 26.7 23.8 13.0 42 8.0 WNW 20 35 11 19 1010.7 - 0.0
27/09:00am 25.7 22.7 13.6 47 7.1 NW 22 30 12 16 1010.7 1010.7 0.0
27/08:30am 25.9 23.3 13.3 45 7.4 NW 19 26 10 14 1010.4 - 0.0
27/08:00am 24.8 23.1 13.7 50 6.5 WNW 15 22 8 12 1010.3 - 0.0
27/07:30am 23.8 23.1 15.5 59 5.0 NNW 13 15 7 8 1010.2 - 0.0
27/07:00am 22.3 22.1 16.7 70 3.4 N 13 17 7 9 1009.9 - 0.0
27/06:30am 21.0 21.3 17.1 78 2.4 N 11 15 6 8 1009.7 - 0.0
27/06:00am 19.0 19.2 16.7 86 1.4 N 11 15 6 8 1009.5 1009.5 0.0
27/05:30am 18.1 18.1 16.3 89 1.1 N 11 13 6 7 1009.3 - 0.0
27/05:00am 18.2 17.8 16.2 88 1.2 N 13 15 7 8 1009.2 - 0.0
27/04:30am 17.6 17.7 15.6 88 1.2 NNE 9 13 5 7 1009.4 - 0.0
27/04:00am 17.7 17.5 15.7 88 1.2 NNE 11 11 6 6 1009.4 - 0.0
27/03:30am 17.8 17.1 15.4 86 1.4 NNE 13 13 7 7 1009.4 - 0.0
27/03:00am 18.0 17.7 15.4 85 1.5 NNE 11 13 6 7 1009.5 1009.5 0.0
27/02:30am 19.5 20.5 16.9 85 1.6 N 7 9 4 5 1009.6 - 0.0
27/02:00am 19.0 19.0 16.3 84 1.6 NE 11 11 6 6 1009.8 - 0.0
27/01:30am 19.7 20.8 16.7 83 1.8 NNE 6 7 3 4 1010.1 - 0.0
27/01:00am 19.7 20.3 16.7 83 1.8 NE 9 11 5 6 1010.4 - 0.0
27/12:30am 19.7 19.4 16.5 82 1.9 NE 13 15 7 8 1010.6 - 0.0
27/12:00am 20.8 21.9 17.0 79 2.3 ENE 7 9 4 5 1011.0 1011.0 0.0
 
Date/Time
WST
Temp
°C
App
Temp
°C
Dew
Point
Rel
Hum
%
Delta-T
°C
Wind Press
QNH
hPa
Press
MSL
hPa
Rain
since 9 am
mm
Dir
 
Spd
km/h
Gust
km/h
Spd
kts
Gust
kts
26/11:30pm 22.0 23.4 17.8 77 2.6 E 7 11 4 6 1011.3 - 0.0
26/11:00pm 22.5 24.2 18.0 75 2.8 S 6 9 3 5 1011.4 - 0.0
26/10:30pm 22.5 23.6 18.0 75 2.8 SW 9 15 5 8 1011.3 - 0.0
26/10:00pm 22.5 23.7 18.2 76 2.7 WSW 9 15 5 8 1011.0 - 0.0
26/09:30pm 22.4 23.2 18.1 76 2.7 W 11 13 6 7 1010.6 - 0.0
26/09:00pm 22.4 22.7 17.9 75 2.8 W 13 17 7 9 1010.3 1010.3 0.0
26/08:30pm 22.6 21.5 17.4 72 3.2 W 19 24 10 13 1009.8 - 0.0
26/08:00pm 22.7 21.6 17.7 73 3.1 W 20 30 11 16 1009.3 - 0.0
26/07:30pm 22.8 20.9 17.7 73 3.2 W 24 32 13 17 1008.7 - 0.0
26/07:00pm 22.9 20.7 17.8 73 3.2 W 26 33 14 18 1008.3 - 0.0
26/06:30pm 23.3 21.3 18.2 73 3.2 W 26 33 14 18 1007.9 - 0.0
26/06:00pm 24.0 22.0 18.3 70 3.6 W 26 33 14 18 1007.9 1007.9 0.0
26/05:30pm 24.6 22.1 18.1 67 4.1 W 28 37 15 20 1007.7 - 0.0
26/05:00pm 25.2 22.8 18.2 65 4.4 W 28 37 15 20 1007.6 - 0.0
26/04:30pm 25.5 23.2 18.4 65 4.5 W 28 35 15 19 1007.8 - 0.0
26/04:00pm 26.1 23.6 18.0 61 5.1 W 28 37 15 20 1007.9 - 0.0
26/03:30pm 26.1 23.5 17.9 60 5.2 W 28 39 15 21 1008.1 - 0.0
26/03:00pm 25.9 23.3 18.7 64 4.6 W 30 41 16 22 1008.2 1008.2 0.0
26/02:30pm 25.8 22.5 18.4 63 4.7 WNW 33 43 18 23 1008.4 - 0.0
26/02:00pm 26.0 22.4 18.5 63 4.8 WNW 35 48 19 26 1008.5 - 0.0
26/01:30pm 26.6 23.2 18.1 59 5.4 WNW 33 48 18 26 1008.6 - 0.0
26/01:00pm 26.5 22.6 18.7 62 5.0 WNW 37 46 20 25 1008.5 - 0.0
26/12:30pm 26.2 22.8 19.0 64 4.6 WNW 35 46 19 25 1008.7 - 0.0
26/12:00pm 26.4 22.9 18.7 62 4.9 WNW 35 46 19 25 1008.5 1008.5 0.0
26/11:30am 26.7 24.0 19.3 64 4.8 WNW 32 41 17 22 1008.6 - 0.0
26/11:00am 26.0 23.0 19.0 65 4.5 WNW 33 43 18 23 1008.8 - 0.0
26/10:30am 26.1 23.7 19.1 65 4.5 WNW 30 39 16 21 1008.9 - 0.0
26/10:00am 26.1 24.2 19.4 66 4.3 WNW 28 35 15 19 1009.1 - 0.0
26/09:30am 26.1 24.6 19.4 66 4.3 NW 26 33 14 18 1009.3 - 0.0
26/09:00am 25.8 24.6 19.3 67 4.2 NW 24 33 13 18 1009.4 1009.4 0.0
26/08:30am 25.2 23.9 19.1 69 3.9 NNW 24 30 13 16 1009.3 - 0.0
26/08:00am 24.3 23.0 19.0 72 3.4 NNW 24 32 13 17 1009.3 - 0.0
26/07:30am 22.7 21.4 19.1 80 2.3 NNW 24 33 13 18 1009.1 - 0.0
26/07:00am 21.4 20.9 19.0 86 1.5 N 20 26 11 14 1008.7 - 0.0
26/06:30am 20.5 20.5 18.9 90 1.0 N 17 22 9 12 1008.3 - 0.0
26/06:00am 20.0 20.4 18.9 93 0.7 N 15 20 8 11 1008.3 1008.3 0.0
26/05:30am 19.6 19.8 18.6 94 0.6 N 15 17 8 9 1008.0 - 0.0
26/05:00am 19.8 20.4 18.7 93 0.7 N 13 17 7 9 1008.0 - 0.0
26/04:30am 19.6 20.6 18.6 94 0.6 N 11 15 6 8 1007.9 - 0.0
26/04:00am 19.3 20.2 18.3 94 0.6 N 11 15 6 8 1007.8 - 0.0
26/03:30am 19.3 20.2 18.3 94 0.6 N 11 13 6 7 1007.7 - 0.0
26/03:00am 19.3 20.5 18.3 94 0.6 N 9 13 5 7 1007.6 1007.6 0.0
26/02:30am 19.4 20.7 18.4 94 0.6 N 9 9 5 5 1007.4 - 0.0
26/02:00am 19.6 21.3 18.6 94 0.6 NNW 7 9 4 5 1007.3 - 0.0
26/01:30am 19.8 21.0 19.0 95 0.5 NNW 11 13 6 7 1007.7 - 0.0
26/01:00am 19.6 21.0 18.6 94 0.6 N 9 11 5 6 1007.9 - 0.0
26/12:30am 19.7 21.0 18.4 92 0.8 N 9 9 5 5 1008.0 - 0.0
26/12:00am 20.6 22.8 19.2 92 0.9 W 6 7 3 4 1008.2 1008.2 0.0
 
Date/Time
WST
Temp
°C
App
Temp
°C
Dew
Point
Rel
Hum
%
Delta-T
°C
Wind Press
QNH
hPa
Press
MSL
hPa
Rain
since 9 am
mm
Dir
 
Spd
km/h
Gust
km/h
Spd
kts
Gust
kts
25/11:30pm 21.7 24.3 20.0 90 1.1 WSW 6 7 3 4 1008.5 - 0.0
25/11:00pm 21.9 24.4 20.2 90 1.1 WSW 7 9 4 5 1008.8 - 0.0
25/10:30pm 21.9 23.9 20.0 89 1.2 SW 9 15 5 8 1008.7 - 0.0
25/10:00pm 22.2 23.2 20.2 88 1.3 SW 15 20 8 11 1008.4 - 0.0
25/09:30pm 22.4 22.4 20.1 87 1.5 WSW 20 24 11 13 1008.4 - 0.0
25/09:00pm 22.4 22.6 20.1 87 1.5 WSW 19 24 10 13 1008.5 1008.5 0.0
25/08:30pm 22.5 22.8 20.5 88 1.3 WSW 19 24 10 13 1008.2 - 0.0
25/08:00pm 22.6 22.9 20.3 87 1.5 WSW 19 24 10 13 1008.4 - 0.0
25/07:30pm 22.7 23.3 20.2 86 1.6 W 17 24 9 13 1008.3 - 0.0
25/07:00pm 23.0 22.9 19.9 83 2.0 W 20 28 11 15 1008.2 - 0.0
25/06:30pm 23.5 22.9 19.8 80 2.4 W 22 30 12 16 1008.1 - 0.0
25/06:00pm 24.5 23.8 19.4 73 3.3 W 22 30 12 16 1007.9 1007.9 0.0
25/05:30pm 24.3 23.0 19.0 72 3.4 W 24 30 13 16 1007.8 - 0.0
25/05:00pm 24.6 24.5 20.0 75 3.0 W 20 26 11 14 1007.8 - 0.0
25/04:30pm 25.6 23.9 18.9 66 4.3 W 26 33 14 18 1007.7 - 0.0
25/04:00pm 25.4 23.0 18.3 65 4.5 W 28 35 15 19 1007.8 - 0.0
25/03:30pm 26.7 24.4 18.4 60 5.3 W 28 35 15 19 1008.0 - 0.0
25/03:00pm 27.3 24.8 18.0 56 5.9 WNW 28 35 15 19 1008.1 1008.1 0.0
25/02:30pm 27.1 24.1 16.8 53 6.4 W 28 35 15 19 1008.4 - 0.0
25/02:00pm 28.1 25.3 16.3 48 7.3 W 26 33 14 18 1008.5 - 0.0
25/01:30pm 27.4 25.2 17.9 56 6.0 W 26 32 14 17 1008.6 - 0.0
25/01:00pm 28.5 26.0 17.0 49 7.2 W 26 32 14 17 1008.6 - 0.0
25/12:30pm 27.8 25.8 18.2 56 6.1 W 26 33 14 18 1008.7 - 0.0
25/12:00pm 27.4 25.6 18.8 59 5.5 WNW 26 35 14 19 1008.8 1008.8 0.0
25/11:30am 27.6 26.3 18.2 56 6.0 WNW 22 30 12 16 1008.9 - 0.0
25/11:00am 28.4 27.7 18.6 55 6.3 WNW 20 28 11 15 1009.1 - 0.0
25/10:30am 27.5 26.7 18.4 57 5.8 W 20 26 11 14 1009.4 - 0.0
25/10:00am 26.8 26.5 18.3 59 5.4 W 17 24 9 13 1009.4 - 0.0
25/09:30am 26.4 26.8 18.2 60 5.2 W 13 17 7 9 1009.4 - 0.0
25/09:00am 25.9 27.1 18.2 62 4.9 W 9 17 5 9 1009.5 1009.5 0.0
25/08:30am 25.2 26.0 18.1 64 4.5 SW 11 15 6 8 1009.5 - 0.0
25/08:00am 24.5 24.9 18.1 67 4.0 S 13 17 7 9 1009.4 - 0.0
25/07:30am 23.7 23.5 18.5 72 3.3 S 17 19 9 10 1009.3 - 0.0
25/07:00am 22.8 23.5 18.0 74 3.0 S 11 17 6 9 1009.1 - 0.0
25/06:30am 21.9 22.2 17.9 78 2.5 S 13 17 7 9 1008.9 - 0.0
25/06:00am 20.8 21.4 17.7 82 1.9 S 11 15 6 8 1008.9 1008.9 0.0
25/05:30am 20.3 20.8 17.4 83 1.8 S 11 13 6 7 1009.0 - 0.0
25/05:00am 20.5 21.0 17.4 82 1.9 S 11 15 6 8 1008.9 - 0.0
25/04:30am 20.8 20.9 17.4 81 2.1 S 13 20 7 11 1009.0 - 0.0
25/04:00am 20.9 20.9 17.3 80 2.2 S 13 19 7 10 1009.0 - 0.0
25/03:30am 21.2 20.0 17.1 77 2.5 SSE 19 24 10 13 1009.1 - 0.0
25/03:00am 21.5 20.4 17.3 77 2.6 S 19 24 10 13 1009.1 1009.1 0.0
25/02:30am 21.6 20.2 17.0 75 2.8 S 20 30 11 16 1009.4 - 0.0
25/02:00am 22.0 19.8 16.9 73 3.1 S 24 30 13 16 1009.7 - 0.0
25/01:30am 22.0 20.4 16.4 70 3.4 SSE 20 26 11 14 1009.9 - 0.0
25/01:00am 22.2 20.4 16.1 68 3.7 S 20 30 11 16 1010.1 - 0.0
25/12:30am 22.3 20.5 16.0 67 3.8 SSE 20 26 11 14 1010.5 - 0.0
25/12:00am 22.6 20.1 16.2 67 3.9 S 24 32 13 17 1010.7 1010.7 0.0
 
Date/Time
WST
Temp
°C
App
Temp
°C
Dew
Point
Rel
Hum
%
Delta-T
°C
Wind Press
QNH
hPa
Press
MSL
hPa
Rain
since 9 am
mm
Dir
 
Spd
km/h
Gust
km/h
Spd
kts
Gust
kts
24/11:30pm 22.7 20.6 16.3 67 3.9 S 22 30 12 16 1010.9 - 0.0
24/11:00pm 23.1 20.6 17.1 69 3.7 S 26 33 14 18 1011.1 - 0.0
24/10:30pm 23.2 20.7 16.1 64 4.3 S 24 37 13 20 1011.1 - 0.0
24/10:00pm 23.3 21.1 17.0 67 3.9 S 24 37 13 20 1011.2 - 0.0
24/09:30pm 23.7 20.6 16.5 64 4.4 S 28 35 15 19 1011.1 - 0.0
24/09:16pm 23.8 21.2 16.8 65 4.3 S 26 35 14 19 1011.1 - 0.0
24/09:00pm 24.0 21.0 16.9 64 4.4 S 28 35 15 19 1011.1 1011.1 0.0
24/08:58pm 24.0 21.0 16.7 63 4.5 S 28 35 15 19 1011.1 - 0.0
24/08:30pm 24.1 22.0 18.0 68 3.8 S 26 35 14 19 1010.9 - 0.0
24/08:00pm 24.0 22.2 18.8 72 3.3 S 26 32 14 17 1010.6 - 0.0

Other Formats:

Comma delimited format used in spreadsheet applications
http://www.bom.gov.au/fwo/IDW60801/IDW60801.94300.axf

JavaScript Object Notation format (JSON) in row-major order
http://www.bom.gov.au/fwo/IDW60801/IDW60801.94300.json